sensor_id;sensor_type;location;lat;lon;timestamp;P1;durP1;ratioP1;P2;durP2;ratioP2
38208;SDS011;24016;52.102;11.584;2022-10-16T00:02:05;6.47;;;2.30;;
38208;SDS011;24016;52.102;11.584;2022-10-16T00:04:31;3.75;;;2.38;;
38208;SDS011;24016;52.102;11.584;2022-10-16T00:06:56;6.40;;;2.45;;
38208;SDS011;24016;52.102;11.584;2022-10-16T00:09:22;2.67;;;2.38;;
38208;SDS011;24016;52.102;11.584;2022-10-16T00:11:48;2.53;;;2.10;;
38208;SDS011;24016;52.102;11.584;2022-10-16T00:14:13;2.70;;;2.05;;
38208;SDS011;24016;52.102;11.584;2022-10-16T00:16:40;2.47;;;2.03;;
38208;SDS011;24016;52.102;11.584;2022-10-16T00:19:05;2.88;;;2.50;;
38208;SDS011;24016;52.102;11.584;2022-10-16T00:21:32;3.05;;;2.38;;
38208;SDS011;24016;52.102;11.584;2022-10-16T00:23:59;3.13;;;2.33;;
38208;SDS011;24016;52.102;11.584;2022-10-16T00:26:27;3.58;;;2.22;;
38208;SDS011;24016;52.102;11.584;2022-10-16T00:28:55;2.10;;;1.90;;
38208;SDS011;24016;52.102;11.584;2022-10-16T00:31:21;2.40;;;2.10;;
38208;SDS011;24016;52.102;11.584;2022-10-16T00:33:48;2.00;;;1.80;;
38208;SDS011;24016;52.102;11.584;2022-10-16T00:36:16;2.03;;;1.80;;
38208;SDS011;24016;52.102;11.584;2022-10-16T00:38:43;2.40;;;2.00;;
38208;SDS011;24016;52.102;11.584;2022-10-16T00:41:11;3.78;;;2.10;;
38208;SDS011;24016;52.102;11.584;2022-10-16T00:43:44;2.53;;;2.10;;
38208;SDS011;24016;52.102;11.584;2022-10-16T00:46:15;2.83;;;2.00;;
38208;SDS011;24016;52.102;11.584;2022-10-16T00:49:04;2.40;;;2.20;;
38208;SDS011;24016;52.102;11.584;2022-10-16T00:51:46;4.30;;;2.05;;
38208;SDS011;24016;52.102;11.584;2022-10-16T00:54:16;2.08;;;1.80;;
38208;SDS011;24016;52.102;11.584;2022-10-16T00:56:47;2.90;;;2.20;;
38208;SDS011;24016;52.102;11.584;2022-10-16T00:59:36;3.60;;;2.45;;
38208;SDS011;24016;52.102;11.584;2022-10-16T01:02:05;2.70;;;2.25;;
38208;SDS011;24016;52.102;11.584;2022-10-16T01:04:34;3.97;;;2.33;;
38208;SDS011;24016;52.102;11.584;2022-10-16T01:07:11;3.00;;;2.17;;
38208;SDS011;24016;52.102;11.584;2022-10-16T01:09:57;2.53;;;2.10;;
38208;SDS011;24016;52.102;11.584;2022-10-16T01:15:17;2.20;;;2.00;;
38208;SDS011;24016;52.102;11.584;2022-10-16T01:20:30;2.22;;;2.03;;
38208;SDS011;24016;52.102;11.584;2022-10-16T01:23:23;2.58;;;2.10;;
38208;SDS011;24016;52.102;11.584;2022-10-16T01:26:06;3.97;;;1.80;;
38208;SDS011;24016;52.102;11.584;2022-10-16T01:28:47;2.08;;;1.75;;
38208;SDS011;24016;52.102;11.584;2022-10-16T01:31:21;2.67;;;1.80;;
38208;SDS011;24016;52.102;11.584;2022-10-16T01:33:52;2.37;;;1.70;;
38208;SDS011;24016;52.102;11.584;2022-10-16T01:36:26;3.15;;;1.60;;
38208;SDS011;24016;52.102;11.584;2022-10-16T01:39:00;2.33;;;1.90;;
38208;SDS011;24016;52.102;11.584;2022-10-16T01:41:32;4.07;;;1.80;;
38208;SDS011;24016;52.102;11.584;2022-10-16T01:44:24;5.47;;;2.00;;
38208;SDS011;24016;52.102;11.584;2022-10-16T01:46:50;2.88;;;1.73;;
38208;SDS011;24016;52.102;11.584;2022-10-16T01:49:18;3.10;;;2.20;;
38208;SDS011;24016;52.102;11.584;2022-10-16T01:51:46;5.03;;;2.60;;
38208;SDS011;24016;52.102;11.584;2022-10-16T01:54:16;4.32;;;3.08;;
38208;SDS011;24016;52.102;11.584;2022-10-16T01:56:44;3.97;;;2.80;;
38208;SDS011;24016;52.102;11.584;2022-10-16T01:59:13;5.15;;;2.80;;
38208;SDS011;24016;52.102;11.584;2022-10-16T02:01:45;4.70;;;2.97;;
38208;SDS011;24016;52.102;11.584;2022-10-16T02:04:20;5.93;;;3.50;;
38208;SDS011;24016;52.102;11.584;2022-10-16T02:06:52;4.47;;;2.80;;
38208;SDS011;24016;52.102;11.584;2022-10-16T02:09:18;5.28;;;2.80;;
38208;SDS011;24016;52.102;11.584;2022-10-16T02:11:45;5.93;;;3.35;;
38208;SDS011;24016;52.102;11.584;2022-10-16T02:14:11;4.90;;;2.80;;
38208;SDS011;24016;52.102;11.584;2022-10-16T02:16:38;4.35;;;2.85;;
38208;SDS011;24016;52.102;11.584;2022-10-16T02:19:06;4.88;;;3.50;;
38208;SDS011;24016;52.102;11.584;2022-10-16T02:21:34;5.03;;;3.05;;
38208;SDS011;24016;52.102;11.584;2022-10-16T02:24:10;4.63;;;3.42;;
38208;SDS011;24016;52.102;11.584;2022-10-16T02:26:48;4.43;;;2.78;;
38208;SDS011;24016;52.102;11.584;2022-10-16T02:29:25;3.95;;;2.63;;
38208;SDS011;24016;52.102;11.584;2022-10-16T02:31:55;4.38;;;2.88;;
38208;SDS011;24016;52.102;11.584;2022-10-16T02:34:27;5.53;;;3.35;;
38208;SDS011;24016;52.102;11.584;2022-10-16T02:36:55;4.32;;;2.80;;
38208;SDS011;24016;52.102;11.584;2022-10-16T02:39:22;4.60;;;2.53;;
38208;SDS011;24016;52.102;11.584;2022-10-16T02:41:48;3.88;;;2.92;;
38208;SDS011;24016;52.102;11.584;2022-10-16T02:44:14;6.15;;;3.15;;
38208;SDS011;24016;52.102;11.584;2022-10-16T02:46:39;4.25;;;3.08;;
38208;SDS011;24016;52.102;11.584;2022-10-16T02:49:05;5.38;;;3.40;;
38208;SDS011;24016;52.102;11.584;2022-10-16T02:51:30;5.90;;;3.40;;
38208;SDS011;24016;52.102;11.584;2022-10-16T02:53:56;5.07;;;3.20;;
38208;SDS011;24016;52.102;11.584;2022-10-16T02:56:21;5.63;;;2.80;;
38208;SDS011;24016;52.102;11.584;2022-10-16T02:58:47;3.90;;;2.72;;
38208;SDS011;24016;52.102;11.584;2022-10-16T03:01:13;4.50;;;3.17;;
38208;SDS011;24016;52.102;11.584;2022-10-16T03:03:41;4.10;;;3.00;;
38208;SDS011;24016;52.102;11.584;2022-10-16T03:06:07;4.15;;;2.85;;
38208;SDS011;24016;52.102;11.584;2022-10-16T03:08:32;4.10;;;2.80;;
38208;SDS011;24016;52.102;11.584;2022-10-16T03:10:58;3.60;;;2.88;;
38208;SDS011;24016;52.102;11.584;2022-10-16T03:13:23;3.75;;;2.83;;
38208;SDS011;24016;52.102;11.584;2022-10-16T03:15:49;4.60;;;2.60;;
38208;SDS011;24016;52.102;11.584;2022-10-16T03:18:15;3.63;;;2.65;;
38208;SDS011;24016;52.102;11.584;2022-10-16T03:20:40;5.18;;;3.15;;
38208;SDS011;24016;52.102;11.584;2022-10-16T03:23:07;5.82;;;3.22;;
38208;SDS011;24016;52.102;11.584;2022-10-16T03:25:33;4.05;;;3.08;;
38208;SDS011;24016;52.102;11.584;2022-10-16T03:27:59;3.70;;;2.88;;
38208;SDS011;24016;52.102;11.584;2022-10-16T03:30:24;3.80;;;2.90;;
38208;SDS011;24016;52.102;11.584;2022-10-16T03:32:50;4.28;;;2.92;;
38208;SDS011;24016;52.102;11.584;2022-10-16T03:35:19;3.88;;;3.17;;
38208;SDS011;24016;52.102;11.584;2022-10-16T03:37:48;4.22;;;2.83;;
38208;SDS011;24016;52.102;11.584;2022-10-16T03:40:14;4.10;;;2.75;;
38208;SDS011;24016;52.102;11.584;2022-10-16T03:42:40;4.15;;;2.90;;
38208;SDS011;24016;52.102;11.584;2022-10-16T03:45:07;3.83;;;2.88;;
38208;SDS011;24016;52.102;11.584;2022-10-16T03:47:32;4.00;;;2.92;;
38208;SDS011;24016;52.102;11.584;2022-10-16T03:49:58;2.65;;;2.28;;
38208;SDS011;24016;52.102;11.584;2022-10-16T03:52:24;5.07;;;2.80;;
38208;SDS011;24016;52.102;11.584;2022-10-16T03:54:50;4.05;;;2.58;;
38208;SDS011;24016;52.102;11.584;2022-10-16T03:57:16;3.58;;;2.55;;
38208;SDS011;24016;52.102;11.584;2022-10-16T03:59:42;4.45;;;2.60;;
38208;SDS011;24016;52.102;11.584;2022-10-16T04:02:08;2.85;;;2.47;;
38208;SDS011;24016;52.102;11.584;2022-10-16T04:04:33;4.72;;;3.17;;
38208;SDS011;24016;52.102;11.584;2022-10-16T04:06:59;3.22;;;2.53;;
38208;SDS011;24016;52.102;11.584;2022-10-16T04:09:25;2.70;;;2.20;;
38208;SDS011;24016;52.102;11.584;2022-10-16T04:11:51;6.22;;;2.90;;
38208;SDS011;24016;52.102;11.584;2022-10-16T04:14:16;3.55;;;2.60;;
38208;SDS011;24016;52.102;11.584;2022-10-16T04:16:42;3.42;;;2.45;;
38208;SDS011;24016;52.102;11.584;2022-10-16T04:19:08;3.58;;;2.55;;
38208;SDS011;24016;52.102;11.584;2022-10-16T04:21:34;4.57;;;2.55;;
38208;SDS011;24016;52.102;11.584;2022-10-16T04:24:00;2.90;;;2.30;;
38208;SDS011;24016;52.102;11.584;2022-10-16T04:26:25;2.70;;;2.10;;
38208;SDS011;24016;52.102;11.584;2022-10-16T04:28:51;2.75;;;2.30;;
38208;SDS011;24016;52.102;11.584;2022-10-16T04:31:16;2.63;;;2.10;;
38208;SDS011;24016;52.102;11.584;2022-10-16T04:33:42;2.42;;;1.95;;
38208;SDS011;24016;52.102;11.584;2022-10-16T04:36:08;3.45;;;1.98;;
38208;SDS011;24016;52.102;11.584;2022-10-16T04:38:34;5.28;;;2.80;;
38208;SDS011;24016;52.102;11.584;2022-10-16T04:40:59;4.40;;;3.03;;
38208;SDS011;24016;52.102;11.584;2022-10-16T04:43:25;3.15;;;2.83;;
38208;SDS011;24016;52.102;11.584;2022-10-16T04:45:51;4.50;;;3.00;;
38208;SDS011;24016;52.102;11.584;2022-10-16T04:48:17;3.58;;;3.00;;
38208;SDS011;24016;52.102;11.584;2022-10-16T04:50:43;4.32;;;2.78;;
38208;SDS011;24016;52.102;11.584;2022-10-16T04:53:08;2.97;;;2.58;;
38208;SDS011;24016;52.102;11.584;2022-10-16T04:55:34;3.08;;;2.50;;
38208;SDS011;24016;52.102;11.584;2022-10-16T04:58:00;3.50;;;2.95;;
38208;SDS011;24016;52.102;11.584;2022-10-16T05:00:25;3.67;;;3.00;;
38208;SDS011;24016;52.102;11.584;2022-10-16T05:02:51;3.33;;;2.72;;
38208;SDS011;24016;52.102;11.584;2022-10-16T05:05:17;3.40;;;3.10;;
38208;SDS011;24016;52.102;11.584;2022-10-16T05:07:44;3.35;;;3.05;;
38208;SDS011;24016;52.102;11.584;2022-10-16T05:10:10;5.63;;;2.80;;
38208;SDS011;24016;52.102;11.584;2022-10-16T05:12:36;3.92;;;2.92;;
38208;SDS011;24016;52.102;11.584;2022-10-16T05:15:02;7.47;;;3.00;;
38208;SDS011;24016;52.102;11.584;2022-10-16T05:17:28;3.35;;;3.05;;
38208;SDS011;24016;52.102;11.584;2022-10-16T05:19:53;3.53;;;3.17;;
38208;SDS011;24016;52.102;11.584;2022-10-16T05:22:19;3.90;;;3.50;;
38208;SDS011;24016;52.102;11.584;2022-10-16T05:24:44;4.25;;;3.67;;
38208;SDS011;24016;52.102;11.584;2022-10-16T05:27:10;4.53;;;3.67;;
38208;SDS011;24016;52.102;11.584;2022-10-16T05:29:36;4.90;;;4.40;;
38208;SDS011;24016;52.102;11.584;2022-10-16T05:32:02;4.80;;;4.30;;
38208;SDS011;24016;52.102;11.584;2022-10-16T05:34:28;4.93;;;4.40;;
38208;SDS011;24016;52.102;11.584;2022-10-16T05:36:54;5.03;;;4.47;;
38208;SDS011;24016;52.102;11.584;2022-10-16T05:39:19;5.03;;;4.45;;
38208;SDS011;24016;52.102;11.584;2022-10-16T05:41:45;5.25;;;4.32;;
38208;SDS011;24016;52.102;11.584;2022-10-16T05:44:11;5.20;;;4.60;;
38208;SDS011;24016;52.102;11.584;2022-10-16T05:46:37;4.75;;;4.30;;
38208;SDS011;24016;52.102;11.584;2022-10-16T05:49:02;5.28;;;4.47;;
38208;SDS011;24016;52.102;11.584;2022-10-16T05:51:28;5.25;;;4.75;;
38208;SDS011;24016;52.102;11.584;2022-10-16T05:53:53;6.50;;;4.93;;
38208;SDS011;24016;52.102;11.584;2022-10-16T05:56:19;6.07;;;5.07;;
38208;SDS011;24016;52.102;11.584;2022-10-16T05:58:44;5.25;;;4.72;;
38208;SDS011;24016;52.102;11.584;2022-10-16T06:01:11;7.55;;;5.40;;
38208;SDS011;24016;52.102;11.584;2022-10-16T06:03:39;10.73;;;4.63;;
38208;SDS011;24016;52.102;11.584;2022-10-16T06:06:12;6.65;;;4.97;;
38208;SDS011;24016;52.102;11.584;2022-10-16T06:08:40;4.63;;;4.07;;
38208;SDS011;24016;52.102;11.584;2022-10-16T06:11:07;5.57;;;4.32;;
38208;SDS011;24016;52.102;11.584;2022-10-16T06:13:35;5.65;;;4.28;;
38208;SDS011;24016;52.102;11.584;2022-10-16T06:16:01;4.82;;;4.43;;
38208;SDS011;24016;52.102;11.584;2022-10-16T06:18:27;4.03;;;3.63;;
38208;SDS011;24016;52.102;11.584;2022-10-16T06:20:54;5.35;;;4.50;;
38208;SDS011;24016;52.102;11.584;2022-10-16T06:23:20;4.65;;;4.18;;
38208;SDS011;24016;52.102;11.584;2022-10-16T06:25:46;4.68;;;4.28;;
38208;SDS011;24016;52.102;11.584;2022-10-16T06:28:15;6.15;;;4.60;;
38208;SDS011;24016;52.102;11.584;2022-10-16T06:30:41;4.20;;;3.80;;
38208;SDS011;24016;52.102;11.584;2022-10-16T06:33:09;4.05;;;3.67;;
38208;SDS011;24016;52.102;11.584;2022-10-16T06:35:35;4.35;;;3.95;;
38208;SDS011;24016;52.102;11.584;2022-10-16T06:38:01;5.28;;;4.07;;
38208;SDS011;24016;52.102;11.584;2022-10-16T06:40:26;4.10;;;3.47;;
38208;SDS011;24016;52.102;11.584;2022-10-16T06:42:54;5.63;;;4.10;;
38208;SDS011;24016;52.102;11.584;2022-10-16T06:45:20;4.93;;;3.72;;
38208;SDS011;24016;52.102;11.584;2022-10-16T06:47:45;6.30;;;5.05;;
38208;SDS011;24016;52.102;11.584;2022-10-16T06:50:11;5.55;;;4.07;;
38208;SDS011;24016;52.102;11.584;2022-10-16T06:52:36;7.22;;;3.97;;
38208;SDS011;24016;52.102;11.584;2022-10-16T06:55:02;6.22;;;4.10;;
38208;SDS011;24016;52.102;11.584;2022-10-16T06:57:28;5.90;;;3.65;;
38208;SDS011;24016;52.102;11.584;2022-10-16T06:59:53;5.97;;;3.63;;
38208;SDS011;24016;52.102;11.584;2022-10-16T07:02:19;5.45;;;3.50;;
38208;SDS011;24016;52.102;11.584;2022-10-16T07:04:44;4.97;;;3.53;;
38208;SDS011;24016;52.102;11.584;2022-10-16T07:07:10;5.95;;;3.70;;
38208;SDS011;24016;52.102;11.584;2022-10-16T07:09:35;5.35;;;3.63;;
38208;SDS011;24016;52.102;11.584;2022-10-16T07:12:01;7.13;;;3.35;;
38208;SDS011;24016;52.102;11.584;2022-10-16T07:14:27;4.00;;;3.30;;
38208;SDS011;24016;52.102;11.584;2022-10-16T07:16:52;4.35;;;3.00;;
38208;SDS011;24016;52.102;11.584;2022-10-16T07:19:18;5.63;;;3.05;;
38208;SDS011;24016;52.102;11.584;2022-10-16T07:21:43;5.07;;;2.95;;
38208;SDS011;24016;52.102;11.584;2022-10-16T07:24:13;4.75;;;2.97;;
38208;SDS011;24016;52.102;11.584;2022-10-16T07:26:40;5.00;;;3.60;;
38208;SDS011;24016;52.102;11.584;2022-10-16T07:29:08;7.63;;;4.75;;
38208;SDS011;24016;52.102;11.584;2022-10-16T07:31:38;5.30;;;3.40;;
38208;SDS011;24016;52.102;11.584;2022-10-16T07:34:04;5.38;;;3.08;;
38208;SDS011;24016;52.102;11.584;2022-10-16T07:36:29;4.13;;;3.00;;
38208;SDS011;24016;52.102;11.584;2022-10-16T07:38:55;4.50;;;2.70;;
38208;SDS011;24016;52.102;11.584;2022-10-16T07:41:21;3.35;;;2.20;;
38208;SDS011;24016;52.102;11.584;2022-10-16T07:43:47;3.25;;;2.30;;
38208;SDS011;24016;52.102;11.584;2022-10-16T07:46:17;3.80;;;2.50;;
38208;SDS011;24016;52.102;11.584;2022-10-16T07:48:44;4.03;;;2.20;;
38208;SDS011;24016;52.102;11.584;2022-10-16T07:51:13;3.33;;;2.10;;
38208;SDS011;24016;52.102;11.584;2022-10-16T07:53:40;3.90;;;2.00;;
38208;SDS011;24016;52.102;11.584;2022-10-16T07:56:06;2.63;;;2.00;;
38208;SDS011;24016;52.102;11.584;2022-10-16T07:58:32;5.30;;;2.00;;
38208;SDS011;24016;52.102;11.584;2022-10-16T08:00:58;2.40;;;1.83;;
38208;SDS011;24016;52.102;11.584;2022-10-16T08:03:27;4.30;;;2.08;;
38208;SDS011;24016;52.102;11.584;2022-10-16T08:05:53;3.33;;;1.70;;
38208;SDS011;24016;52.102;11.584;2022-10-16T08:08:18;4.50;;;2.22;;
38208;SDS011;24016;52.102;11.584;2022-10-16T08:10:44;3.67;;;2.42;;
38208;SDS011;24016;52.102;11.584;2022-10-16T08:13:10;4.78;;;2.00;;
38208;SDS011;24016;52.102;11.584;2022-10-16T08:15:35;3.33;;;1.95;;
38208;SDS011;24016;52.102;11.584;2022-10-16T08:18:02;2.88;;;2.15;;
38208;SDS011;24016;52.102;11.584;2022-10-16T08:20:29;3.53;;;2.33;;
38208;SDS011;24016;52.102;11.584;2022-10-16T08:22:55;3.13;;;2.00;;
38208;SDS011;24016;52.102;11.584;2022-10-16T08:25:22;4.38;;;2.00;;
38208;SDS011;24016;52.102;11.584;2022-10-16T08:27:48;5.03;;;1.90;;
38208;SDS011;24016;52.102;11.584;2022-10-16T08:30:15;3.05;;;1.98;;
38208;SDS011;24016;52.102;11.584;2022-10-16T08:32:41;3.05;;;1.70;;
38208;SDS011;24016;52.102;11.584;2022-10-16T08:35:08;1.95;;;1.40;;
38208;SDS011;24016;52.102;11.584;2022-10-16T08:37:35;2.22;;;1.60;;
38208;SDS011;24016;52.102;11.584;2022-10-16T08:40:01;3.92;;;1.65;;
38208;SDS011;24016;52.102;11.584;2022-10-16T08:45:15;2.35;;;1.40;;
38208;SDS011;24016;52.102;11.584;2022-10-16T08:48:00;1.73;;;1.20;;
38208;SDS011;24016;52.102;11.584;2022-10-16T08:50:49;2.33;;;1.20;;
38208;SDS011;24016;52.102;11.584;2022-10-16T08:53:38;3.08;;;1.30;;
38208;SDS011;24016;52.102;11.584;2022-10-16T08:56:06;2.15;;;1.13;;
38208;SDS011;24016;52.102;11.584;2022-10-16T08:58:32;2.90;;;1.00;;
38208;SDS011;24016;52.102;11.584;2022-10-16T09:00:58;1.98;;;1.00;;
38208;SDS011;24016;52.102;11.584;2022-10-16T09:03:30;2.10;;;1.02;;
38208;SDS011;24016;52.102;11.584;2022-10-16T09:09:08;1.70;;;1.08;;
38208;SDS011;24016;52.102;11.584;2022-10-16T09:11:45;0.82;;;0.70;;
38208;SDS011;24016;52.102;11.584;2022-10-16T09:17:30;2.47;;;1.10;;
38208;SDS011;24016;52.102;11.584;2022-10-16T09:22:47;3.33;;;0.90;;
38208;SDS011;24016;52.102;11.584;2022-10-16T09:25:17;1.90;;;1.08;;
38208;SDS011;24016;52.102;11.584;2022-10-16T09:27:47;0.98;;;0.70;;
38208;SDS011;24016;52.102;11.584;2022-10-16T09:30:18;1.73;;;0.85;;
38208;SDS011;24016;52.102;11.584;2022-10-16T09:32:45;1.65;;;0.93;;
38208;SDS011;24016;52.102;11.584;2022-10-16T09:35:18;1.75;;;0.80;;
38208;SDS011;24016;52.102;11.584;2022-10-16T09:37:47;1.10;;;0.90;;
38208;SDS011;24016;52.102;11.584;2022-10-16T09:40:31;0.75;;;0.70;;
38208;SDS011;24016;52.102;11.584;2022-10-16T09:45:43;0.70;;;0.70;;
38208;SDS011;24016;52.102;11.584;2022-10-16T09:48:17;4.55;;;1.00;;
38208;SDS011;24016;52.102;11.584;2022-10-16T09:50:55;1.55;;;1.10;;
38208;SDS011;24016;52.102;11.584;2022-10-16T09:53:21;3.72;;;0.80;;
38208;SDS011;24016;52.102;11.584;2022-10-16T09:55:51;0.75;;;0.70;;
38208;SDS011;24016;52.102;11.584;2022-10-16T09:58:20;4.20;;;0.77;;
38208;SDS011;24016;52.102;11.584;2022-10-16T10:00:53;3.90;;;1.20;;
38208;SDS011;24016;52.102;11.584;2022-10-16T10:03:30;2.30;;;0.88;;
38208;SDS011;24016;52.102;11.584;2022-10-16T10:06:16;2.00;;;0.77;;
38208;SDS011;24016;52.102;11.584;2022-10-16T10:11:47;1.17;;;0.80;;
38208;SDS011;24016;52.102;11.584;2022-10-16T10:14:31;0.50;;;0.40;;
38208;SDS011;24016;52.102;11.584;2022-10-16T10:20:13;3.72;;;0.90;;
38208;SDS011;24016;52.102;11.584;2022-10-16T10:36:28;0.90;;;0.60;;
38208;SDS011;24016;52.102;11.584;2022-10-16T10:41:34;1.90;;;0.75;;
38208;SDS011;24016;52.102;11.584;2022-10-16T10:57:30;0.93;;;0.80;;
38208;SDS011;24016;52.102;11.584;2022-10-16T11:00:16;2.92;;;0.57;;
38208;SDS011;24016;52.102;11.584;2022-10-16T11:05:27;2.08;;;0.60;;
38208;SDS011;24016;52.102;11.584;2022-10-16T11:13:28;1.17;;;0.70;;
38208;SDS011;24016;52.102;11.584;2022-10-16T11:16:20;0.60;;;0.60;;
38208;SDS011;24016;52.102;11.584;2022-10-16T11:21:30;1.35;;;0.50;;
38208;SDS011;24016;52.102;11.584;2022-10-16T11:24:04;1.55;;;0.60;;
38208;SDS011;24016;52.102;11.584;2022-10-16T11:26:57;0.30;;;0.30;;
38208;SDS011;24016;52.102;11.584;2022-10-16T11:32:07;0.43;;;0.40;;
38208;SDS011;24016;52.102;11.584;2022-10-16T11:35:02;1.75;;;0.47;;
38208;SDS011;24016;52.102;11.584;2022-10-16T11:37:41;6.15;;;0.68;;
38208;SDS011;24016;52.102;11.584;2022-10-16T11:42:48;3.85;;;0.70;;
38208;SDS011;24016;52.102;11.584;2022-10-16T11:45:42;0.73;;;0.47;;
38208;SDS011;24016;52.102;11.584;2022-10-16T11:50:49;0.98;;;0.60;;
38208;SDS011;24016;52.102;11.584;2022-10-16T11:56:04;2.55;;;0.65;;
38208;SDS011;24016;52.102;11.584;2022-10-16T11:58:31;1.00;;;0.45;;
38208;SDS011;24016;52.102;11.584;2022-10-16T12:01:40;0.98;;;0.60;;
38208;SDS011;24016;52.102;11.584;2022-10-16T12:04:21;0.88;;;0.50;;
38208;SDS011;24016;52.102;11.584;2022-10-16T12:06:57;0.98;;;0.60;;
38208;SDS011;24016;52.102;11.584;2022-10-16T12:09:32;0.75;;;0.55;;
38208;SDS011;24016;52.102;11.584;2022-10-16T12:12:01;2.90;;;0.90;;
38208;SDS011;24016;52.102;11.584;2022-10-16T12:17:03;1.63;;;0.73;;
38208;SDS011;24016;52.102;11.584;2022-10-16T12:19:58;2.63;;;0.43;;
38208;SDS011;24016;52.102;11.584;2022-10-16T12:22:48;2.25;;;0.80;;
38208;SDS011;24016;52.102;11.584;2022-10-16T12:25:21;2.60;;;0.50;;
38208;SDS011;24016;52.102;11.584;2022-10-16T12:28:00;2.13;;;0.60;;
38208;SDS011;24016;52.102;11.584;2022-10-16T12:30:32;1.33;;;0.63;;
38208;SDS011;24016;52.102;11.584;2022-10-16T12:33:01;0.60;;;0.50;;
38208;SDS011;24016;52.102;11.584;2022-10-16T12:35:33;0.82;;;0.52;;
38208;SDS011;24016;52.102;11.584;2022-10-16T12:38:20;0.95;;;0.57;;
38208;SDS011;24016;52.102;11.584;2022-10-16T12:43:25;0.75;;;0.50;;
38208;SDS011;24016;52.102;11.584;2022-10-16T12:46:00;1.88;;;0.80;;
38208;SDS011;24016;52.102;11.584;2022-10-16T12:48:35;1.48;;;0.60;;
38208;SDS011;24016;52.102;11.584;2022-10-16T12:51:19;0.63;;;0.45;;
38208;SDS011;24016;52.102;11.584;2022-10-16T13:01:41;1.17;;;0.70;;
38208;SDS011;24016;52.102;11.584;2022-10-16T13:04:31;0.50;;;0.50;;
38208;SDS011;24016;52.102;11.584;2022-10-16T13:10:28;2.65;;;0.60;;
38208;SDS011;24016;52.102;11.584;2022-10-16T13:13:09;1.35;;;0.70;;
38208;SDS011;24016;52.102;11.584;2022-10-16T13:18:53;3.03;;;0.82;;
38208;SDS011;24016;52.102;11.584;2022-10-16T13:24:22;2.30;;;0.80;;
38208;SDS011;24016;52.102;11.584;2022-10-16T13:27:06;2.83;;;0.77;;
38208;SDS011;24016;52.102;11.584;2022-10-16T13:30:10;2.00;;;0.60;;
38208;SDS011;24016;52.102;11.584;2022-10-16T13:32:51;0.60;;;0.40;;
38208;SDS011;24016;52.102;11.584;2022-10-16T13:35:46;1.75;;;0.60;;
38208;SDS011;24016;52.102;11.584;2022-10-16T13:38:18;0.95;;;0.38;;
38208;SDS011;24016;52.102;11.584;2022-10-16T13:40:58;1.17;;;0.63;;
38208;SDS011;24016;52.102;11.584;2022-10-16T13:43:27;1.30;;;0.52;;
38208;SDS011;24016;52.102;11.584;2022-10-16T13:48:27;0.77;;;0.30;;
38208;SDS011;24016;52.102;11.584;2022-10-16T13:51:06;1.25;;;0.60;;
38208;SDS011;24016;52.102;11.584;2022-10-16T13:53:38;1.65;;;0.47;;
38208;SDS011;24016;52.102;11.584;2022-10-16T13:56:06;2.35;;;0.45;;
38208;SDS011;24016;52.102;11.584;2022-10-16T13:58:35;2.80;;;0.50;;
38208;SDS011;24016;52.102;11.584;2022-10-16T14:01:05;0.47;;;0.40;;
38208;SDS011;24016;52.102;11.584;2022-10-16T14:03:51;1.67;;;0.50;;
38208;SDS011;24016;52.102;11.584;2022-10-16T14:06:19;1.52;;;0.60;;
38208;SDS011;24016;52.102;11.584;2022-10-16T14:08:50;1.58;;;0.70;;
38208;SDS011;24016;52.102;11.584;2022-10-16T14:11:22;0.45;;;0.40;;
38208;SDS011;24016;52.102;11.584;2022-10-16T14:13:49;0.80;;;0.40;;
38208;SDS011;24016;52.102;11.584;2022-10-16T14:16:16;1.15;;;0.50;;
38208;SDS011;24016;52.102;11.584;2022-10-16T14:19:22;1.25;;;0.50;;
38208;SDS011;24016;52.102;11.584;2022-10-16T14:21:45;2.50;;;0.98;;
38208;SDS011;24016;52.102;11.584;2022-10-16T14:24:11;0.88;;;0.60;;
38208;SDS011;24016;52.102;11.584;2022-10-16T14:26:42;0.60;;;0.60;;
38208;SDS011;24016;52.102;11.584;2022-10-16T14:31:39;0.73;;;0.50;;
38208;SDS011;24016;52.102;11.584;2022-10-16T14:34:22;1.23;;;0.60;;
38208;SDS011;24016;52.102;11.584;2022-10-16T14:36:52;2.30;;;0.57;;
38208;SDS011;24016;52.102;11.584;2022-10-16T14:39:19;2.35;;;0.50;;
38208;SDS011;24016;52.102;11.584;2022-10-16T14:41:47;2.60;;;0.75;;
38208;SDS011;24016;52.102;11.584;2022-10-16T14:44:14;0.50;;;0.40;;
38208;SDS011;24016;52.102;11.584;2022-10-16T14:46:43;0.90;;;0.60;;
38208;SDS011;24016;52.102;11.584;2022-10-16T14:51:35;1.38;;;0.60;;
38208;SDS011;24016;52.102;11.584;2022-10-16T14:54:02;1.50;;;0.55;;
38208;SDS011;24016;52.102;11.584;2022-10-16T14:59:25;0.82;;;0.40;;
38208;SDS011;24016;52.102;11.584;2022-10-16T15:01:56;2.70;;;0.60;;
38208;SDS011;24016;52.102;11.584;2022-10-16T15:04:21;1.38;;;0.50;;
38208;SDS011;24016;52.102;11.584;2022-10-16T15:06:47;0.88;;;0.60;;
38208;SDS011;24016;52.102;11.584;2022-10-16T15:09:13;0.70;;;0.50;;
38208;SDS011;24016;52.102;11.584;2022-10-16T15:11:38;1.50;;;0.50;;
38208;SDS011;24016;52.102;11.584;2022-10-16T15:14:04;2.25;;;0.55;;
38208;SDS011;24016;52.102;11.584;2022-10-16T15:16:30;1.92;;;0.60;;
38208;SDS011;24016;52.102;11.584;2022-10-16T15:18:56;0.85;;;0.40;;
38208;SDS011;24016;52.102;11.584;2022-10-16T15:21:24;0.68;;;0.47;;
38208;SDS011;24016;52.102;11.584;2022-10-16T15:23:57;1.83;;;0.50;;
38208;SDS011;24016;52.102;11.584;2022-10-16T15:26:25;1.48;;;0.63;;
38208;SDS011;24016;52.102;11.584;2022-10-16T15:28:51;1.13;;;0.50;;
38208;SDS011;24016;52.102;11.584;2022-10-16T15:31:17;2.72;;;1.00;;
38208;SDS011;24016;52.102;11.584;2022-10-16T15:33:43;4.03;;;0.63;;
38208;SDS011;24016;52.102;11.584;2022-10-16T15:36:09;2.42;;;0.60;;
38208;SDS011;24016;52.102;11.584;2022-10-16T15:38:34;4.20;;;1.20;;
38208;SDS011;24016;52.102;11.584;2022-10-16T15:41:00;4.45;;;1.60;;
38208;SDS011;24016;52.102;11.584;2022-10-16T15:43:25;1.95;;;1.05;;
38208;SDS011;24016;52.102;11.584;2022-10-16T15:46:02;2.17;;;1.10;;
38208;SDS011;24016;52.102;11.584;2022-10-16T15:48:30;2.10;;;0.90;;
38208;SDS011;24016;52.102;11.584;2022-10-16T15:50:57;1.30;;;0.80;;
38208;SDS011;24016;52.102;11.584;2022-10-16T15:53:23;1.65;;;0.93;;
38208;SDS011;24016;52.102;11.584;2022-10-16T15:55:49;4.93;;;2.00;;
38208;SDS011;24016;52.102;11.584;2022-10-16T15:58:14;5.30;;;1.65;;
38208;SDS011;24016;52.102;11.584;2022-10-16T16:00:40;4.63;;;1.55;;
38208;SDS011;24016;52.102;11.584;2022-10-16T16:03:06;4.35;;;1.83;;
38208;SDS011;24016;52.102;11.584;2022-10-16T16:05:31;3.10;;;1.30;;
38208;SDS011;24016;52.102;11.584;2022-10-16T16:07:58;5.53;;;1.40;;
38208;SDS011;24016;52.102;11.584;2022-10-16T16:10:24;2.30;;;1.40;;
38208;SDS011;24016;52.102;11.584;2022-10-16T16:12:50;3.72;;;1.50;;
38208;SDS011;24016;52.102;11.584;2022-10-16T16:15:18;2.72;;;1.50;;
38208;SDS011;24016;52.102;11.584;2022-10-16T16:17:45;4.00;;;1.40;;
38208;SDS011;24016;52.102;11.584;2022-10-16T16:20:11;2.42;;;1.10;;
38208;SDS011;24016;52.102;11.584;2022-10-16T16:22:37;2.35;;;1.10;;
38208;SDS011;24016;52.102;11.584;2022-10-16T16:25:02;2.72;;;1.02;;
38208;SDS011;24016;52.102;11.584;2022-10-16T16:27:28;2.63;;;1.00;;
38208;SDS011;24016;52.102;11.584;2022-10-16T16:29:57;2.85;;;0.93;;
38208;SDS011;24016;52.102;11.584;2022-10-16T16:32:23;2.63;;;1.40;;
38208;SDS011;24016;52.102;11.584;2022-10-16T16:34:49;2.83;;;1.10;;
38208;SDS011;24016;52.102;11.584;2022-10-16T16:37:15;2.28;;;0.98;;
38208;SDS011;24016;52.102;11.584;2022-10-16T16:39:40;1.88;;;1.00;;